Khorramabad, Iran
Current Conditions -  °F | °C
As of 10:00 AM on Thursday 18 Dec 2014 (Local Time) from OICK Reporting Station
Clear Clear  
Wind Chill: 42°   Ceiling: Unl
Heat Index: 45°   Visibility: 6mi
Dew Point: 36°   Wind: 5mph
Humidity: 71%   Direction: 330°NNW
Pressure: 30.3"   Gusts: NA
Location:  33.47°N, 48.35°E
Report Text: OICK 180700Z 33004KT CAVOK 07/02 Q1026
Loading
Personal Weather Stations






























Interactive Weather Map New forecast layout! Learn more

10-Day Weather Forecast

Advertisements
Track Severe Weather on mobile